N1ES KBGR-EICK
Flight info
| Callsign | N1ES |
|---|---|
| Flight time | 4h 59m |
| Altitude | 37000 |
| Route | TOPPS DCT ALLRY/M080F370 DCT 51N050W 52N040W 53N030W 54N020W DCT MALOT/N0456F370 DCT GISTI DCT BUNON DCT KURUM KURUM1G |
| Aircraft | CL60/M-SBDE1E2E3FGHIJ1J4J5J7M3RWXYZ/LB1V1D1 |
Departure
| Time | 2026-05-03 22:37 |
|---|---|
| Airport | Bangor International Airport (KBGR) |
Arrival
| Time | 2026-05-04 03:36 |
|---|---|
| Airport | Cork International Airport (EICK) |
| Time | Latitude | Longitude | Altitude | Speed | Heading |
|---|---|---|---|---|---|
| 2026-05-03 22:00 | 44.81083 | -68.81831 | 158 ft | 0 kts | 314° |
| 2026-05-03 22:31 | 44.81088 | -68.81844 | 158 ft | 1 kts | 278° |
| 2026-05-03 22:31 | 44.81081 | -68.81870 | 158 ft | 5 kts | 234° |
| 2026-05-03 22:31 | 44.81048 | -68.81914 | 159 ft | 7 kts | 219° |
| 2026-05-03 22:32 | 44.81010 | -68.81966 | 160 ft | 8 kts | 225° |
| 2026-05-03 22:32 | 44.80965 | -68.82030 | 161 ft | 11 kts | 226° |
| 2026-05-03 22:32 | 44.80894 | -68.82123 | 161 ft | 15 kts | 224° |
| 2026-05-03 22:32 | 44.80839 | -68.82250 | 163 ft | 12 kts | 227° |
| 2026-05-03 22:33 | 44.80757 | -68.82229 | 161 ft | 16 kts | 135° |
| 2026-05-03 22:33 | 44.80666 | -68.82098 | 158 ft | 20 kts | 134° |
| 2026-05-03 22:33 | 44.80555 | -68.81938 | 154 ft | 24 kts | 134° |
| 2026-05-03 22:33 | 44.80426 | -68.81749 | 151 ft | 28 kts | 133° |
| 2026-05-03 22:34 | 44.80284 | -68.81542 | 151 ft | 30 kts | 135° |
| 2026-05-03 22:34 | 44.80146 | -68.81345 | 151 ft | 27 kts | 134° |
| 2026-05-03 22:34 | 44.80040 | -68.81191 | 154 ft | 21 kts | 135° |
| 2026-05-03 22:34 | 44.79933 | -68.81036 | 153 ft | 18 kts | 135° |
| 2026-05-03 22:35 | 44.79831 | -68.81020 | 151 ft | 16 kts | 219° |
| 2026-05-03 22:35 | 44.79747 | -68.81136 | 154 ft | 17 kts | 226° |
| 2026-05-03 22:35 | 44.79702 | -68.81287 | 156 ft | 15 kts | 276° |
| 2026-05-03 22:35 | 44.79729 | -68.81348 | 157 ft | 0 kts | 313° |
| 2026-05-03 22:36 | 44.79731 | -68.81350 | 157 ft | 8 kts | 313° |
| 2026-05-03 22:36 | 44.80016 | -68.81759 | 154 ft | 102 kts | 314° |
| 2026-05-03 22:36 | 44.80677 | -68.82717 | 213 ft | 163 kts | 316° |
| 2026-05-03 22:36 | 44.81517 | -68.83913 | 770 ft | 181 kts | 315° |
| 2026-05-03 22:37 | 44.82345 | -68.85183 | 1979 ft | 178 kts | 315° |
| 2026-05-03 22:37 | 44.83201 | -68.86298 | 3269 ft | 168 kts | 331° |
| 2026-05-03 22:37 | 44.84368 | -68.86839 | 3880 ft | 198 kts | 354° |
| 2026-05-03 22:37 | 44.85778 | -68.86237 | 4522 ft | 235 kts | 32° |
| 2026-05-03 22:38 | 44.86821 | -68.84346 | 5547 ft | 256 kts | 51° |
| 2026-05-03 22:38 | 44.87737 | -68.82154 | 6694 ft | 263 kts | 52° |
| 2026-05-03 22:38 | 44.88665 | -68.79954 | 7857 ft | 269 kts | 52° |
| 2026-05-03 22:38 | 44.89621 | -68.77711 | 8997 ft | 273 kts | 53° |
| 2026-05-03 22:39 | 44.90597 | -68.75427 | 10093 ft | 278 kts | 54° |
| 2026-05-03 22:39 | 44.91643 | -68.72999 | 10621 ft | 304 kts | 54° |
| 2026-05-03 22:39 | 44.92788 | -68.70351 | 10992 ft | 330 kts | 54° |
| 2026-05-03 22:39 | 44.93995 | -68.67548 | 11688 ft | 342 kts | 54° |
| 2026-05-03 22:40 | 44.95248 | -68.64642 | 12462 ft | 350 kts | 54° |
| 2026-05-03 22:40 | 44.96524 | -68.61678 | 13291 ft | 356 kts | 55° |
| 2026-05-03 22:40 | 44.97802 | -68.58715 | 14093 ft | 362 kts | 55° |
| 2026-05-03 22:40 | 44.99112 | -68.55676 | 14894 ft | 366 kts | 55° |
| 2026-05-03 22:41 | 45.00453 | -68.52565 | 15639 ft | 371 kts | 56° |
| 2026-05-03 22:41 | 45.01801 | -68.49435 | 16333 ft | 376 kts | 56° |
| 2026-05-03 22:41 | 45.03154 | -68.46294 | 17014 ft | 380 kts | 57° |
| 2026-05-03 22:41 | 45.04541 | -68.43070 | 17670 ft | 385 kts | 57° |
| 2026-05-03 22:42 | 45.05944 | -68.39812 | 18269 ft | 390 kts | 57° |
| 2026-05-03 22:42 | 45.07355 | -68.36528 | 18851 ft | 394 kts | 57° |
| 2026-05-03 22:42 | 45.08789 | -68.33191 | 19454 ft | 398 kts | 58° |
| 2026-05-03 22:42 | 45.10225 | -68.29847 | 20068 ft | 400 kts | 59° |
| 2026-05-03 22:43 | 45.11668 | -68.26483 | 20640 ft | 403 kts | 59° |
| 2026-05-03 22:43 | 45.13108 | -68.23122 | 21330 ft | 401 kts | 59° |
| 2026-05-03 22:43 | 45.14550 | -68.19754 | 21918 ft | 403 kts | 59° |
| 2026-05-03 22:43 | 45.16005 | -68.16351 | 22362 ft | 407 kts | 59° |
| 2026-05-03 22:44 | 45.17478 | -68.12904 | 22782 ft | 412 kts | 59° |
| 2026-05-03 22:44 | 45.18964 | -68.09422 | 23231 ft | 415 kts | 59° |
| 2026-05-03 22:44 | 45.20473 | -68.05883 | 23677 ft | 419 kts | 59° |
| 2026-05-03 22:44 | 45.21974 | -68.02358 | 24112 ft | 421 kts | 59° |
| 2026-05-03 22:45 | 45.23491 | -67.98792 | 24557 ft | 423 kts | 59° |
| 2026-05-03 22:45 | 45.24992 | -67.95259 | 24984 ft | 425 kts | 60° |
| 2026-05-03 22:45 | 45.26529 | -67.91636 | 25392 ft | 426 kts | 60° |
| 2026-05-03 22:45 | 45.28047 | -67.88055 | 25808 ft | 428 kts | 60° |
| 2026-05-03 22:46 | 45.29584 | -67.84423 | 26101 ft | 431 kts | 60° |
| 2026-05-03 22:46 | 45.31141 | -67.80742 | 26465 ft | 433 kts | 61° |
| 2026-05-03 22:46 | 45.32685 | -67.77085 | 26813 ft | 435 kts | 62° |
| 2026-05-03 22:46 | 45.34248 | -67.73389 | 27112 ft | 438 kts | 61° |
| 2026-05-03 22:47 | 45.35829 | -67.69740 | 27416 ft | 440 kts | 61° |
| 2026-05-03 22:47 | 45.37442 | -67.66032 | 27762 ft | 441 kts | 61° |
| 2026-05-03 22:47 | 45.39052 | -67.62325 | 28071 ft | 443 kts | 61° |
| 2026-05-03 22:47 | 45.40672 | -67.58588 | 28357 ft | 445 kts | 62° |
| 2026-05-03 22:48 | 45.42302 | -67.54824 | 28628 ft | 447 kts | 62° |
| 2026-05-03 22:48 | 45.43917 | -67.51088 | 28889 ft | 448 kts | 62° |
| 2026-05-03 22:48 | 45.45562 | -67.47279 | 29153 ft | 449 kts | 62° |
| 2026-05-03 22:48 | 45.47178 | -67.43532 | 29479 ft | 449 kts | 62° |
| 2026-05-03 22:49 | 45.48824 | -67.39711 | 29824 ft | 448 kts | 62° |
| 2026-05-03 22:49 | 45.50440 | -67.35956 | 30182 ft | 446 kts | 62° |
| 2026-05-03 22:49 | 45.52008 | -67.32169 | 30301 ft | 449 kts | 65° |
| 2026-05-03 22:49 | 45.53572 | -67.28193 | 30001 ft | 463 kts | 64° |
| 2026-05-03 22:50 | 45.55258 | -67.24232 | 29733 ft | 473 kts | 61° |
| 2026-05-03 22:50 | 45.58976 | -67.16510 | 30300 ft | 466 kts | 62° |
| 2026-05-03 22:50 | 45.60625 | -67.12633 | 30816 ft | 455 kts | 63° |
| 2026-05-03 22:51 | 45.62248 | -67.08755 | 31146 ft | 450 kts | 63° |
| 2026-05-03 22:51 | 45.63855 | -67.04922 | 31365 ft | 450 kts | 63° |
| 2026-05-03 22:51 | 45.65456 | -67.01104 | 31523 ft | 451 kts | 63° |
| 2026-05-03 22:51 | 45.67076 | -66.97241 | 31646 ft | 453 kts | 62° |
| 2026-05-03 22:52 | 45.68696 | -66.93378 | 31773 ft | 455 kts | 62° |
| 2026-05-03 22:52 | 45.70324 | -66.89496 | 31916 ft | 456 kts | 62° |
| 2026-05-03 22:52 | 45.71960 | -66.85596 | 32059 ft | 458 kts | 62° |
| 2026-05-03 22:52 | 45.73594 | -66.81699 | 32208 ft | 459 kts | 62° |
| 2026-05-03 22:53 | 45.75233 | -66.77788 | 32365 ft | 460 kts | 62° |
| 2026-05-03 22:53 | 45.76866 | -66.73888 | 32507 ft | 461 kts | 62° |
| 2026-05-03 22:53 | 45.78513 | -66.69952 | 32657 ft | 462 kts | 62° |
| 2026-05-03 22:53 | 45.80161 | -66.66009 | 32817 ft | 462 kts | 62° |
| 2026-05-03 22:54 | 45.81808 | -66.62067 | 32965 ft | 463 kts | 62° |
| 2026-05-03 22:54 | 45.83462 | -66.58102 | 33091 ft | 464 kts | 62° |
| 2026-05-03 22:54 | 45.85118 | -66.54129 | 33252 ft | 465 kts | 62° |
| 2026-05-03 22:54 | 45.86784 | -66.50128 | 33417 ft | 465 kts | 62° |
| 2026-05-03 22:55 | 45.88423 | -66.46186 | 33548 ft | 466 kts | 62° |
| 2026-05-03 22:55 | 45.90096 | -66.42157 | 33716 ft | 466 kts | 62° |
| 2026-05-03 22:55 | 45.91738 | -66.38200 | 33876 ft | 466 kts | 62° |
| 2026-05-03 22:55 | 45.93394 | -66.34203 | 34008 ft | 467 kts | 62° |
| 2026-05-03 22:56 | 45.95052 | -66.30196 | 34138 ft | 467 kts | 62° |
| 2026-05-03 22:56 | 45.96715 | -66.26169 | 34307 ft | 467 kts | 62° |
| 2026-05-03 22:56 | 45.98370 | -66.22160 | 34457 ft | 467 kts | 62° |
| 2026-05-03 22:56 | 46.00020 | -66.18156 | 34601 ft | 467 kts | 62° |
| 2026-05-03 22:57 | 46.01677 | -66.14128 | 34740 ft | 467 kts | 62° |
| 2026-05-03 22:57 | 46.03335 | -66.10094 | 34883 ft | 468 kts | 62° |
| 2026-05-03 22:57 | 46.04974 | -66.06101 | 35005 ft | 469 kts | 62° |
| 2026-05-03 22:57 | 46.06642 | -66.02029 | 35141 ft | 470 kts | 62° |
| 2026-05-03 22:58 | 46.08301 | -65.97976 | 35274 ft | 470 kts | 62° |
| 2026-05-03 22:58 | 46.09967 | -65.93900 | 35410 ft | 470 kts | 62° |
| 2026-05-03 22:58 | 46.11618 | -65.89851 | 35513 ft | 470 kts | 63° |
| 2026-05-03 22:58 | 46.13280 | -65.85773 | 35617 ft | 471 kts | 62° |
| 2026-05-03 22:59 | 46.14933 | -65.81710 | 35708 ft | 472 kts | 63° |
| 2026-05-03 22:59 | 46.18245 | -65.73552 | 35883 ft | 473 kts | 63° |
| 2026-05-03 23:00 | 46.21560 | -65.65362 | 36047 ft | 475 kts | 63° |
| 2026-05-03 23:00 | 46.24897 | -65.57092 | 36180 ft | 476 kts | 63° |
| 2026-05-03 23:01 | 46.28216 | -65.48843 | 36315 ft | 478 kts | 63° |
| 2026-05-03 23:01 | 46.29894 | -65.44665 | 36424 ft | 477 kts | 63° |
| 2026-05-03 23:01 | 46.31542 | -65.40553 | 36525 ft | 477 kts | 63° |
| 2026-05-03 23:02 | 46.34887 | -65.32188 | 36551 ft | 482 kts | 63° |
| 2026-05-03 23:02 | 46.38244 | -65.23767 | 36528 ft | 487 kts | 63° |
| 2026-05-03 23:03 | 46.41629 | -65.15249 | 36539 ft | 490 kts | 64° |
| 2026-05-03 23:03 | 46.45017 | -65.06699 | 36541 ft | 494 kts | 63° |
| 2026-05-03 23:04 | 46.48436 | -64.98044 | 36517 ft | 497 kts | 64° |
| 2026-05-03 23:04 | 46.51875 | -64.89311 | 36513 ft | 501 kts | 64° |
| 2026-05-03 23:05 | 46.55340 | -64.80482 | 36533 ft | 503 kts | 64° |
| 2026-05-03 23:05 | 46.58791 | -64.71661 | 36546 ft | 505 kts | 64° |
| 2026-05-03 23:06 | 46.62258 | -64.62769 | 36519 ft | 508 kts | 64° |
| 2026-05-03 23:06 | 46.65730 | -64.53835 | 36500 ft | 511 kts | 64° |
| 2026-05-03 23:07 | 46.69216 | -64.44836 | 36516 ft | 512 kts | 64° |
| 2026-05-03 23:07 | 46.72715 | -64.35774 | 36512 ft | 512 kts | 64° |
| 2026-05-03 23:08 | 46.76190 | -64.26744 | 36501 ft | 512 kts | 65° |
| 2026-05-03 23:08 | 46.79662 | -64.17693 | 36515 ft | 513 kts | 65° |
| 2026-05-03 23:09 | 46.83115 | -64.08660 | 36525 ft | 512 kts | 65° |
| 2026-05-03 23:09 | 46.86593 | -63.99527 | 36484 ft | 512 kts | 65° |
| 2026-05-03 23:10 | 46.90034 | -63.90465 | 36503 ft | 511 kts | 65° |
| 2026-05-03 23:10 | 46.93459 | -63.81413 | 36500 ft | 511 kts | 66° |
| 2026-05-03 23:11 | 46.96890 | -63.72315 | 36502 ft | 511 kts | 66° |
| 2026-05-03 23:11 | 47.00295 | -63.63254 | 36505 ft | 511 kts | 66° |
| 2026-05-03 23:12 | 47.03727 | -63.54091 | 36509 ft | 511 kts | 66° |
| 2026-05-03 23:12 | 47.07122 | -63.44996 | 36518 ft | 511 kts | 66° |
| 2026-05-03 23:13 | 47.10514 | -63.35878 | 36519 ft | 511 kts | 66° |
| 2026-05-03 23:13 | 47.13892 | -63.26766 | 36506 ft | 509 kts | 67° |
| 2026-05-03 23:14 | 47.17272 | -63.17618 | 36519 ft | 510 kts | 67° |
| 2026-05-03 23:14 | 47.20629 | -63.08499 | 36484 ft | 510 kts | 67° |
| 2026-05-03 23:15 | 47.23982 | -62.99363 | 36497 ft | 509 kts | 68° |
| 2026-05-03 23:15 | 47.27325 | -62.90217 | 36492 ft | 510 kts | 68° |
| 2026-05-03 23:16 | 47.30666 | -62.81050 | 36516 ft | 509 kts | 68° |
| 2026-05-03 23:16 | 47.34010 | -62.71838 | 36503 ft | 510 kts | 68° |
| 2026-05-03 23:17 | 47.37334 | -62.62654 | 36517 ft | 509 kts | 68° |
| 2026-05-03 23:17 | 47.40666 | -62.53413 | 36503 ft | 510 kts | 68° |
| 2026-05-03 23:18 | 47.43990 | -62.44162 | 36525 ft | 511 kts | 68° |
| 2026-05-03 23:18 | 47.47304 | -62.34905 | 36527 ft | 512 kts | 69° |
| 2026-05-03 23:19 | 47.50606 | -62.25654 | 36530 ft | 510 kts | 69° |
| 2026-05-03 23:19 | 47.53909 | -62.16365 | 36539 ft | 510 kts | 69° |
| 2026-05-03 23:20 | 47.57185 | -62.07118 | 36542 ft | 511 kts | 69° |
| 2026-05-03 23:20 | 47.60485 | -61.97772 | 36569 ft | 512 kts | 69° |
| 2026-05-03 23:21 | 47.63788 | -61.88384 | 36566 ft | 511 kts | 69° |
| 2026-05-03 23:21 | 47.67052 | -61.79071 | 36330 ft | 511 kts | 69° |
| 2026-05-03 23:21 | 47.68677 | -61.74430 | 36556 ft | 507 kts | 69° |
| 2026-05-03 23:22 | 47.71920 | -61.65125 | 36553 ft | 510 kts | 69° |
| 2026-05-03 23:22 | 47.75188 | -61.55717 | 36569 ft | 513 kts | 69° |
| 2026-05-03 23:23 | 47.78452 | -61.46286 | 36544 ft | 514 kts | 69° |
| 2026-05-03 23:23 | 47.81697 | -61.36879 | 36555 ft | 515 kts | 70° |
| 2026-05-03 23:24 | 47.84973 | -61.27348 | 36565 ft | 516 kts | 70° |
| 2026-05-03 23:24 | 47.88212 | -61.17890 | 36591 ft | 515 kts | 70° |
| 2026-05-03 23:25 | 47.91467 | -61.08347 | 36608 ft | 516 kts | 70° |
| 2026-05-03 23:25 | 47.94690 | -60.98865 | 36587 ft | 517 kts | 70° |
| 2026-05-03 23:26 | 47.97928 | -60.89306 | 36589 ft | 516 kts | 70° |
| 2026-05-03 23:26 | 48.01168 | -60.79702 | 36572 ft | 518 kts | 70° |
| 2026-05-03 23:27 | 48.04388 | -60.70122 | 36555 ft | 517 kts | 70° |
| 2026-05-03 23:27 | 48.07619 | -60.60475 | 36581 ft | 517 kts | 70° |
| 2026-05-03 23:28 | 48.10830 | -60.50853 | 36614 ft | 517 kts | 70° |
| 2026-05-03 23:28 | 48.14014 | -60.41275 | 36612 ft | 517 kts | 70° |
| 2026-05-03 23:29 | 48.17219 | -60.31596 | 36606 ft | 517 kts | 71° |
| 2026-05-03 23:29 | 48.20414 | -60.21909 | 36613 ft | 518 kts | 71° |
| 2026-05-03 23:30 | 48.23592 | -60.12243 | 36612 ft | 517 kts | 71° |
| 2026-05-03 23:30 | 48.26745 | -60.02611 | 36623 ft | 518 kts | 71° |
| 2026-05-03 23:31 | 48.29906 | -59.92916 | 36627 ft | 519 kts | 71° |
| 2026-05-03 23:31 | 48.33087 | -59.83127 | 36619 ft | 520 kts | 71° |
| 2026-05-03 23:32 | 48.36244 | -59.73373 | 36611 ft | 521 kts | 71° |
| 2026-05-03 23:32 | 48.39419 | -59.63526 | 36623 ft | 521 kts | 71° |
| 2026-05-03 23:33 | 48.42568 | -59.53724 | 36623 ft | 521 kts | 71° |
| 2026-05-03 23:33 | 48.45709 | -59.43904 | 36620 ft | 522 kts | 71° |
| 2026-05-03 23:34 | 48.48841 | -59.34076 | 36618 ft | 523 kts | 72° |
| 2026-05-03 23:34 | 48.51979 | -59.24191 | 36622 ft | 522 kts | 72° |
| 2026-05-03 23:35 | 48.55107 | -59.14297 | 36630 ft | 522 kts | 72° |
| 2026-05-03 23:35 | 48.58228 | -59.04385 | 36630 ft | 524 kts | 72° |
| 2026-05-03 23:36 | 48.61335 | -58.94480 | 36614 ft | 524 kts | 72° |
| 2026-05-03 23:36 | 48.64440 | -58.84545 | 36632 ft | 525 kts | 72° |
| 2026-05-03 23:37 | 48.67566 | -58.74499 | 36649 ft | 526 kts | 72° |
| 2026-05-03 23:37 | 48.70651 | -58.64547 | 36647 ft | 526 kts | 72° |
| 2026-05-03 23:38 | 48.73766 | -58.54455 | 36626 ft | 527 kts | 72° |
| 2026-05-03 23:38 | 48.76856 | -58.44407 | 36648 ft | 526 kts | 72° |
| 2026-05-03 23:39 | 48.79943 | -58.34325 | 36640 ft | 528 kts | 73° |
| 2026-05-03 23:39 | 48.83006 | -58.24279 | 36645 ft | 529 kts | 73° |
| 2026-05-03 23:40 | 48.86107 | -58.14074 | 36665 ft | 530 kts | 73° |
| 2026-05-03 23:40 | 48.89165 | -58.03960 | 36658 ft | 530 kts | 73° |
| 2026-05-03 23:41 | 48.92238 | -57.93763 | 36674 ft | 530 kts | 73° |
| 2026-05-03 23:41 | 48.95310 | -57.83519 | 36668 ft | 531 kts | 73° |
| 2026-05-03 23:42 | 48.98351 | -57.73340 | 36683 ft | 533 kts | 73° |
| 2026-05-03 23:42 | 49.01413 | -57.63043 | 36684 ft | 534 kts | 72° |
| 2026-05-03 23:43 | 49.04467 | -57.52734 | 36712 ft | 536 kts | 72° |
| 2026-05-03 23:43 | 49.07541 | -57.42310 | 36697 ft | 538 kts | 72° |
| 2026-05-03 23:44 | 49.10600 | -57.31897 | 36730 ft | 538 kts | 73° |
| 2026-05-03 23:44 | 49.13641 | -57.21502 | 36722 ft | 539 kts | 73° |
| 2026-05-03 23:45 | 49.16678 | -57.11070 | 36711 ft | 540 kts | 72° |
| 2026-05-03 23:45 | 49.19721 | -57.00576 | 36714 ft | 541 kts | 72° |
| 2026-05-03 23:46 | 49.22750 | -56.90083 | 36730 ft | 542 kts | 72° |
| 2026-05-03 23:46 | 49.25790 | -56.79505 | 36719 ft | 543 kts | 72° |
| 2026-05-03 23:47 | 49.28828 | -56.68890 | 36735 ft | 543 kts | 72° |
| 2026-05-03 23:47 | 49.31844 | -56.58303 | 36726 ft | 545 kts | 72° |
| 2026-05-03 23:48 | 49.34860 | -56.47670 | 36738 ft | 547 kts | 72° |
| 2026-05-03 23:48 | 49.37870 | -56.37010 | 36751 ft | 548 kts | 71° |
| 2026-05-03 23:49 | 49.40894 | -56.26250 | 36763 ft | 549 kts | 72° |
| 2026-05-03 23:49 | 49.43885 | -56.15562 | 36786 ft | 549 kts | 72° |
| 2026-05-03 23:50 | 49.46400 | -56.06537 | 36790 ft | 550 kts | 72° |
| 2026-05-03 23:50 | 49.49902 | -55.93911 | 36792 ft | 551 kts | 72° |
| 2026-05-03 23:51 | 49.52886 | -55.83101 | 36795 ft | 552 kts | 72° |
| 2026-05-03 23:51 | 49.55869 | -55.72244 | 36800 ft | 554 kts | 71° |
| 2026-05-03 23:52 | 49.58850 | -55.61344 | 36801 ft | 553 kts | 71° |
| 2026-05-03 23:52 | 49.61830 | -55.50396 | 36803 ft | 555 kts | 71° |
| 2026-05-03 23:53 | 49.64813 | -55.39388 | 36812 ft | 555 kts | 71° |
| 2026-05-03 23:53 | 49.67773 | -55.28411 | 36815 ft | 555 kts | 71° |
| 2026-05-03 23:54 | 49.70718 | -55.17438 | 36801 ft | 555 kts | 72° |
| 2026-05-03 23:54 | 49.73665 | -55.06408 | 36811 ft | 555 kts | 71° |
| 2026-05-03 23:55 | 49.76582 | -54.95435 | 36825 ft | 554 kts | 71° |
| 2026-05-03 23:55 | 49.79494 | -54.84428 | 36822 ft | 556 kts | 71° |
| 2026-05-03 23:56 | 49.82409 | -54.73360 | 36837 ft | 556 kts | 71° |
| 2026-05-03 23:56 | 49.85323 | -54.62237 | 36837 ft | 557 kts | 71° |
| 2026-05-03 23:57 | 49.88215 | -54.51149 | 36840 ft | 557 kts | 71° |
| 2026-05-03 23:57 | 49.91097 | -54.40047 | 36850 ft | 557 kts | 70° |
| 2026-05-03 23:58 | 49.93972 | -54.28914 | 36855 ft | 557 kts | 71° |
| 2026-05-03 23:58 | 49.96833 | -54.17780 | 36847 ft | 557 kts | 71° |
| 2026-05-03 23:59 | 49.99699 | -54.06575 | 36866 ft | 557 kts | 71° |
| 2026-05-03 23:59 | 50.02532 | -53.95443 | 36855 ft | 558 kts | 70° |
| 2026-05-04 00:00 | 50.05360 | -53.84273 | 36848 ft | 557 kts | 70° |
| 2026-05-04 00:00 | 50.08181 | -53.73077 | 36869 ft | 556 kts | 70° |
| 2026-05-04 00:01 | 50.10983 | -53.61903 | 36847 ft | 555 kts | 70° |
| 2026-05-04 00:01 | 50.13776 | -53.50704 | 36869 ft | 555 kts | 69° |
| 2026-05-04 00:02 | 50.16544 | -53.39551 | 36868 ft | 555 kts | 69° |
| 2026-05-04 00:02 | 50.19317 | -53.28325 | 36884 ft | 554 kts | 71° |
| 2026-05-04 00:03 | 50.22062 | -53.17151 | 36896 ft | 553 kts | 70° |
| 2026-05-04 00:03 | 50.24797 | -53.05963 | 36887 ft | 554 kts | 70° |
| 2026-05-04 00:04 | 50.27525 | -52.94751 | 36889 ft | 555 kts | 70° |
| 2026-05-04 00:04 | 50.30250 | -52.83485 | 36897 ft | 554 kts | 70° |
| 2026-05-04 00:05 | 50.32961 | -52.72223 | 36889 ft | 554 kts | 70° |
| 2026-05-04 00:05 | 50.35654 | -52.60982 | 36883 ft | 553 kts | 69° |
| 2026-05-04 00:06 | 50.38344 | -52.49691 | 36896 ft | 554 kts | 69° |
| 2026-05-04 00:06 | 50.41005 | -52.38467 | 36888 ft | 552 kts | 69° |
| 2026-05-04 00:07 | 50.43671 | -52.27159 | 36889 ft | 551 kts | 70° |
| 2026-05-04 00:07 | 50.46304 | -52.15935 | 36893 ft | 550 kts | 69° |
| 2026-05-04 00:08 | 50.48920 | -52.04728 | 36881 ft | 549 kts | 69° |
| 2026-05-04 00:08 | 50.51680 | -51.93565 | 36874 ft | 548 kts | 66° |
| 2026-05-04 00:09 | 50.54550 | -51.82550 | 36879 ft | 549 kts | 66° |
| 2026-05-04 00:09 | 50.57429 | -51.71432 | 36880 ft | 548 kts | 66° |
| 2026-05-04 00:10 | 50.60287 | -51.60342 | 36881 ft | 548 kts | 66° |
| 2026-05-04 00:10 | 50.63121 | -51.49286 | 36885 ft | 547 kts | 66° |
| 2026-05-04 00:11 | 50.65940 | -51.38231 | 36883 ft | 546 kts | 65° |
| 2026-05-04 00:11 | 50.68753 | -51.27146 | 36890 ft | 545 kts | 66° |
| 2026-05-04 00:12 | 50.71545 | -51.16089 | 36900 ft | 545 kts | 66° |
| 2026-05-04 00:12 | 50.74335 | -51.04985 | 36916 ft | 545 kts | 66° |
| 2026-05-04 00:13 | 50.77094 | -50.93950 | 36936 ft | 544 kts | 66° |
| 2026-05-04 00:13 | 50.79853 | -50.82859 | 36916 ft | 544 kts | 66° |
| 2026-05-04 00:14 | 50.82609 | -50.71724 | 36919 ft | 543 kts | 66° |
| 2026-05-04 00:14 | 50.85341 | -50.60627 | 36932 ft | 543 kts | 66° |
| 2026-05-04 00:15 | 50.88064 | -50.49514 | 36936 ft | 543 kts | 66° |
| 2026-05-04 00:15 | 50.90764 | -50.38439 | 36941 ft | 542 kts | 66° |
| 2026-05-04 00:16 | 50.93460 | -50.27325 | 36944 ft | 542 kts | 66° |
| 2026-05-04 00:16 | 50.96147 | -50.16188 | 36953 ft | 541 kts | 66° |
| 2026-05-04 00:17 | 50.98817 | -50.05067 | 36960 ft | 541 kts | 66° |
| 2026-05-04 00:17 | 51.00984 | -49.93630 | 36961 ft | 544 kts | 76° |
| 2026-05-04 00:18 | 51.02651 | -49.82021 | 36950 ft | 544 kts | 75° |
| 2026-05-04 00:18 | 51.04331 | -49.70267 | 36958 ft | 546 kts | 74° |
| 2026-05-04 00:19 | 51.06004 | -49.58486 | 36977 ft | 547 kts | 75° |
| 2026-05-04 00:19 | 51.07653 | -49.46786 | 36997 ft | 546 kts | 74° |
| 2026-05-04 00:20 | 51.09302 | -49.34988 | 36978 ft | 546 kts | 73° |
| 2026-05-04 00:20 | 51.10933 | -49.23237 | 37007 ft | 545 kts | 74° |
| 2026-05-04 00:21 | 51.12559 | -49.11432 | 36996 ft | 547 kts | 74° |
| 2026-05-04 00:21 | 51.14165 | -48.99683 | 36992 ft | 547 kts | 75° |
| 2026-05-04 00:22 | 51.15768 | -48.87856 | 37003 ft | 547 kts | 74° |
| 2026-05-04 00:22 | 51.17360 | -48.76012 | 37003 ft | 547 kts | 74° |
| 2026-05-04 00:23 | 51.18931 | -48.64232 | 37010 ft | 547 kts | 74° |
| 2026-05-04 00:23 | 51.20500 | -48.52367 | 37025 ft | 546 kts | 74° |
| 2026-05-04 00:24 | 51.22052 | -48.40538 | 37019 ft | 546 kts | 74° |
| 2026-05-04 00:24 | 51.23583 | -48.28770 | 37023 ft | 546 kts | 75° |
| 2026-05-04 00:25 | 51.25113 | -48.16904 | 37011 ft | 545 kts | 74° |
| 2026-05-04 00:25 | 51.26620 | -48.05114 | 37043 ft | 544 kts | 75° |
| 2026-05-04 00:26 | 51.28113 | -47.93345 | 37029 ft | 543 kts | 74° |
| 2026-05-04 00:26 | 51.29598 | -47.81536 | 37036 ft | 544 kts | 74° |
| 2026-05-04 00:27 | 51.31071 | -47.69716 | 37028 ft | 543 kts | 75° |
| 2026-05-04 00:27 | 51.32532 | -47.57885 | 37038 ft | 542 kts | 75° |
| 2026-05-04 00:28 | 51.33983 | -47.46038 | 37027 ft | 543 kts | 75° |
| 2026-05-04 00:28 | 51.35415 | -47.34238 | 37046 ft | 542 kts | 76° |
| 2026-05-04 00:29 | 51.36842 | -47.22371 | 37048 ft | 542 kts | 76° |
| 2026-05-04 00:29 | 51.38247 | -47.10590 | 37065 ft | 541 kts | 76° |
| 2026-05-04 00:30 | 51.39640 | -46.98792 | 37076 ft | 541 kts | 76° |
| 2026-05-04 00:30 | 51.41024 | -46.86962 | 37079 ft | 541 kts | 77° |
| 2026-05-04 00:31 | 51.42393 | -46.75159 | 37085 ft | 540 kts | 76° |
| 2026-05-04 00:31 | 51.43747 | -46.63365 | 37090 ft | 541 kts | 76° |
| 2026-05-04 00:32 | 51.45089 | -46.51573 | 37090 ft | 541 kts | 76° |
| 2026-05-04 00:32 | 51.46431 | -46.39667 | 37106 ft | 540 kts | 76° |
| 2026-05-04 00:33 | 51.48413 | -46.21876 | 37111 ft | 542 kts | 77° |
| 2026-05-04 00:34 | 51.49715 | -46.10046 | 37123 ft | 543 kts | 77° |
| 2026-05-04 00:34 | 51.51011 | -45.98146 | 37120 ft | 543 kts | 77° |
| 2026-05-04 00:35 | 51.52299 | -45.86214 | 37125 ft | 543 kts | 77° |
| 2026-05-04 00:35 | 51.53570 | -45.74312 | 37145 ft | 541 kts | 77° |
| 2026-05-04 00:36 | 51.54819 | -45.62498 | 37143 ft | 540 kts | 77° |
| 2026-05-04 00:36 | 51.56063 | -45.50615 | 37140 ft | 539 kts | 77° |
| 2026-05-04 00:37 | 51.57291 | -45.38761 | 37135 ft | 538 kts | 77° |
| 2026-05-04 00:37 | 51.58511 | -45.26863 | 37150 ft | 537 kts | 78° |
| 2026-05-04 00:38 | 51.59703 | -45.15113 | 37147 ft | 537 kts | 78° |
| 2026-05-04 00:38 | 51.60895 | -45.03244 | 37140 ft | 535 kts | 78° |
| 2026-05-04 00:39 | 51.62065 | -44.91467 | 37174 ft | 534 kts | 78° |
| 2026-05-04 00:39 | 51.63218 | -44.79737 | 37159 ft | 534 kts | 78° |
| 2026-05-04 00:40 | 51.64360 | -44.67988 | 37169 ft | 531 kts | 78° |
| 2026-05-04 00:40 | 51.65486 | -44.56290 | 37185 ft | 529 kts | 78° |
| 2026-05-04 00:41 | 51.66597 | -44.44614 | 37203 ft | 528 kts | 78° |
| 2026-05-04 00:41 | 51.67697 | -44.32919 | 37191 ft | 527 kts | 79° |
| 2026-05-04 00:42 | 51.68789 | -44.21202 | 37203 ft | 527 kts | 79° |
| 2026-05-04 00:42 | 51.69857 | -44.09594 | 37199 ft | 526 kts | 79° |
| 2026-05-04 00:43 | 51.70913 | -43.97984 | 37202 ft | 526 kts | 79° |
| 2026-05-04 00:43 | 51.71961 | -43.86341 | 37217 ft | 524 kts | 79° |
| 2026-05-04 00:44 | 51.72990 | -43.74773 | 37215 ft | 524 kts | 80° |
| 2026-05-04 00:44 | 51.74011 | -43.63157 | 37215 ft | 524 kts | 79° |
| 2026-05-04 00:45 | 51.75016 | -43.51586 | 37226 ft | 523 kts | 80° |
| 2026-05-04 00:45 | 51.76012 | -43.39987 | 37223 ft | 523 kts | 80° |
| 2026-05-04 00:46 | 51.76997 | -43.28385 | 37223 ft | 522 kts | 81° |
| 2026-05-04 00:46 | 51.77967 | -43.16806 | 37231 ft | 523 kts | 81° |
| 2026-05-04 00:47 | 51.78926 | -43.05229 | 37235 ft | 522 kts | 81° |
| 2026-05-04 00:47 | 51.79877 | -42.93604 | 37239 ft | 521 kts | 81° |
| 2026-05-04 00:48 | 51.80810 | -42.82048 | 37244 ft | 521 kts | 81° |
| 2026-05-04 00:48 | 51.81731 | -42.70496 | 37251 ft | 520 kts | 81° |
| 2026-05-04 00:49 | 51.82641 | -42.58950 | 37251 ft | 519 kts | 81° |
| 2026-05-04 00:49 | 51.83536 | -42.47434 | 37263 ft | 519 kts | 81° |
| 2026-05-04 00:50 | 51.84422 | -42.35892 | 37265 ft | 518 kts | 81° |
| 2026-05-04 00:50 | 51.85300 | -42.24303 | 37275 ft | 518 kts | 82° |
| 2026-05-04 00:51 | 51.86158 | -42.12807 | 37273 ft | 516 kts | 82° |
| 2026-05-04 00:51 | 51.87002 | -42.01363 | 37281 ft | 516 kts | 82° |
| 2026-05-04 00:52 | 51.87839 | -41.89858 | 37285 ft | 515 kts | 82° |
| 2026-05-04 00:52 | 51.88662 | -41.78369 | 37288 ft | 515 kts | 82° |
| 2026-05-04 00:53 | 51.89475 | -41.66883 | 37292 ft | 515 kts | 82° |
| 2026-05-04 00:53 | 51.90277 | -41.55371 | 37287 ft | 516 kts | 82° |
| 2026-05-04 00:54 | 51.91071 | -41.43814 | 37276 ft | 515 kts | 83° |
| 2026-05-04 00:54 | 51.91848 | -41.32344 | 37279 ft | 515 kts | 83° |
| 2026-05-04 00:54 | 51.92231 | -41.26623 | 37405 ft | 516 kts | 84° |
| 2026-05-04 00:55 | 51.92616 | -41.20846 | 37261 ft | 514 kts | 84° |
| 2026-05-04 00:55 | 51.93366 | -41.09421 | 37272 ft | 512 kts | 84° |
| 2026-05-04 00:56 | 51.94105 | -40.98016 | 37279 ft | 512 kts | 84° |
| 2026-05-04 00:56 | 51.94838 | -40.86520 | 37293 ft | 512 kts | 84° |
| 2026-05-04 00:57 | 51.95555 | -40.75087 | 37297 ft | 512 kts | 84° |
| 2026-05-04 00:57 | 51.96263 | -40.63636 | 37309 ft | 512 kts | 84° |
| 2026-05-04 00:58 | 51.96958 | -40.52198 | 37308 ft | 511 kts | 84° |
| 2026-05-04 00:58 | 51.97641 | -40.40776 | 37309 ft | 512 kts | 84° |
| 2026-05-04 00:59 | 51.98314 | -40.29350 | 37211 ft | 509 kts | 84° |
| 2026-05-04 00:59 | 51.98646 | -40.23632 | 37321 ft | 509 kts | 85° |
| 2026-05-04 00:59 | 51.98973 | -40.17956 | 37309 ft | 511 kts | 84° |
| 2026-05-04 01:00 | 51.99629 | -40.06422 | 37318 ft | 513 kts | 85° |
| 2026-05-04 01:00 | 52.00671 | -39.95057 | 37322 ft | 512 kts | 76° |
| 2026-05-04 01:01 | 52.02300 | -39.83854 | 37327 ft | 512 kts | 76° |
| 2026-05-04 01:01 | 52.03917 | -39.72596 | 37332 ft | 512 kts | 76° |
| 2026-05-04 01:02 | 52.05515 | -39.61377 | 37329 ft | 512 kts | 76° |
| 2026-05-04 01:02 | 52.07099 | -39.50174 | 37344 ft | 512 kts | 76° |
| 2026-05-04 01:03 | 52.08674 | -39.38942 | 37344 ft | 513 kts | 76° |
| 2026-05-04 01:03 | 52.10241 | -39.27681 | 37350 ft | 513 kts | 77° |
| 2026-05-04 01:04 | 52.11807 | -39.16337 | 37350 ft | 513 kts | 77° |
| 2026-05-04 01:04 | 52.13346 | -39.05099 | 37349 ft | 513 kts | 77° |
| 2026-05-04 01:05 | 52.14881 | -38.93804 | 37348 ft | 513 kts | 77° |
| 2026-05-04 01:05 | 52.16412 | -38.82454 | 37345 ft | 512 kts | 77° |
| 2026-05-04 01:06 | 52.17921 | -38.71176 | 37348 ft | 512 kts | 77° |
| 2026-05-04 01:06 | 52.19419 | -38.59890 | 37357 ft | 512 kts | 77° |
| 2026-05-04 01:07 | 52.20910 | -38.48568 | 37358 ft | 513 kts | 77° |
| 2026-05-04 01:07 | 52.22395 | -38.37201 | 37359 ft | 513 kts | 77° |
| 2026-05-04 01:08 | 52.23853 | -38.25948 | 37365 ft | 513 kts | 78° |
| 2026-05-04 01:08 | 52.25315 | -38.14575 | 37370 ft | 512 kts | 78° |
| 2026-05-04 01:09 | 52.26761 | -38.03240 | 37377 ft | 512 kts | 78° |
| 2026-05-04 01:09 | 52.28198 | -37.91878 | 37380 ft | 512 kts | 78° |
| 2026-05-04 01:10 | 52.29630 | -37.80465 | 37374 ft | 512 kts | 78° |
| 2026-05-04 01:10 | 52.31034 | -37.69174 | 37376 ft | 512 kts | 78° |
| 2026-05-04 01:11 | 52.32439 | -37.57791 | 37380 ft | 512 kts | 78° |
| 2026-05-04 01:11 | 52.33832 | -37.46400 | 37378 ft | 512 kts | 78° |
| 2026-05-04 01:12 | 52.35213 | -37.35017 | 37378 ft | 512 kts | 78° |
| 2026-05-04 01:12 | 52.36577 | -37.23679 | 37380 ft | 512 kts | 79° |
| 2026-05-04 01:13 | 52.37939 | -37.12253 | 37384 ft | 511 kts | 79° |
| 2026-05-04 01:13 | 52.39283 | -37.00881 | 37384 ft | 512 kts | 79° |
| 2026-05-04 01:14 | 52.40619 | -36.89486 | 37380 ft | 512 kts | 79° |
| 2026-05-04 01:14 | 52.41947 | -36.78051 | 37385 ft | 512 kts | 79° |
| 2026-05-04 01:15 | 52.43264 | -36.66608 | 37388 ft | 512 kts | 79° |
| 2026-05-04 01:15 | 52.44569 | -36.55174 | 37391 ft | 512 kts | 79° |
| 2026-05-04 01:16 | 52.45855 | -36.43803 | 37394 ft | 512 kts | 79° |
| 2026-05-04 01:16 | 52.47144 | -36.32296 | 37395 ft | 512 kts | 79° |
| 2026-05-04 01:17 | 52.48412 | -36.20864 | 37400 ft | 512 kts | 79° |
| 2026-05-04 01:17 | 52.49671 | -36.09419 | 37401 ft | 512 kts | 79° |
| 2026-05-04 01:18 | 52.50921 | -35.97951 | 37405 ft | 512 kts | 79° |
| 2026-05-04 01:18 | 52.52159 | -35.86471 | 37409 ft | 512 kts | 79° |
| 2026-05-04 01:19 | 52.53390 | -35.74961 | 37398 ft | 511 kts | 79° |
| 2026-05-04 01:19 | 52.54604 | -35.63490 | 37398 ft | 512 kts | 79° |
| 2026-05-04 01:20 | 52.55814 | -35.51954 | 37411 ft | 512 kts | 79° |
| 2026-05-04 01:20 | 52.56998 | -35.40542 | 37405 ft | 511 kts | 79° |
| 2026-05-04 01:21 | 52.58187 | -35.28983 | 37397 ft | 511 kts | 80° |
| 2026-05-04 01:21 | 52.59358 | -35.17478 | 37406 ft | 511 kts | 80° |
| 2026-05-04 01:22 | 52.60514 | -35.05999 | 37400 ft | 511 kts | 80° |
| 2026-05-04 01:22 | 52.61664 | -34.94467 | 37396 ft | 511 kts | 80° |
| 2026-05-04 01:23 | 52.62795 | -34.83010 | 37396 ft | 510 kts | 80° |
| 2026-05-04 01:23 | 52.63919 | -34.71503 | 37390 ft | 511 kts | 80° |
| 2026-05-04 01:24 | 52.65035 | -34.59960 | 37392 ft | 510 kts | 80° |
| 2026-05-04 01:24 | 52.66135 | -34.48458 | 37397 ft | 510 kts | 80° |
| 2026-05-04 01:25 | 52.67231 | -34.36884 | 37394 ft | 510 kts | 80° |
| 2026-05-04 01:25 | 52.68306 | -34.25401 | 37392 ft | 510 kts | 81° |
| 2026-05-04 01:26 | 52.69367 | -34.13943 | 37398 ft | 509 kts | 81° |
| 2026-05-04 01:26 | 52.70423 | -34.02412 | 37396 ft | 510 kts | 81° |
| 2026-05-04 01:27 | 52.71470 | -33.90850 | 37401 ft | 510 kts | 81° |
| 2026-05-04 01:27 | 52.72503 | -33.79322 | 37397 ft | 510 kts | 81° |
| 2026-05-04 01:28 | 52.73523 | -33.67800 | 37396 ft | 510 kts | 81° |
| 2026-05-04 01:28 | 52.74536 | -33.56227 | 37401 ft | 510 kts | 81° |
| 2026-05-04 01:29 | 52.75531 | -33.44733 | 37406 ft | 510 kts | 81° |
| 2026-05-04 01:29 | 52.76519 | -33.33170 | 37405 ft | 510 kts | 81° |
| 2026-05-04 01:30 | 52.77503 | -33.21531 | 37409 ft | 510 kts | 81° |
| 2026-05-04 01:30 | 52.78465 | -33.10004 | 37401 ft | 510 kts | 81° |
| 2026-05-04 01:31 | 52.79421 | -32.98416 | 37404 ft | 510 kts | 81° |
| 2026-05-04 01:31 | 52.80367 | -32.86800 | 37394 ft | 510 kts | 81° |
| 2026-05-04 01:32 | 52.81295 | -32.75271 | 37410 ft | 510 kts | 81° |
| 2026-05-04 01:32 | 52.82218 | -32.63646 | 37402 ft | 510 kts | 81° |
| 2026-05-04 01:33 | 52.83129 | -32.52026 | 37399 ft | 510 kts | 81° |
| 2026-05-04 01:33 | 52.84027 | -32.40434 | 37394 ft | 509 kts | 81° |
| 2026-05-04 01:34 | 52.84910 | -32.28880 | 37400 ft | 509 kts | 82° |
| 2026-05-04 01:34 | 52.85781 | -32.17325 | 37387 ft | 509 kts | 82° |
| 2026-05-04 01:35 | 52.86644 | -32.05733 | 37406 ft | 508 kts | 82° |
| 2026-05-04 01:35 | 52.87500 | -31.94064 | 37400 ft | 509 kts | 82° |
| 2026-05-04 01:36 | 52.88340 | -31.82467 | 37377 ft | 509 kts | 82° |
| 2026-05-04 01:36 | 52.89170 | -31.70830 | 37386 ft | 509 kts | 82° |
| 2026-05-04 01:37 | 52.89991 | -31.59166 | 37382 ft | 508 kts | 82° |
| 2026-05-04 01:37 | 52.90794 | -31.47590 | 37386 ft | 508 kts | 82° |
| 2026-05-04 01:38 | 52.91583 | -31.36037 | 37384 ft | 508 kts | 82° |
| 2026-05-04 01:38 | 52.92363 | -31.24453 | 37383 ft | 508 kts | 83° |
| 2026-05-04 01:39 | 52.93134 | -31.12843 | 37383 ft | 508 kts | 83° |
| 2026-05-04 01:39 | 52.93894 | -31.01216 | 37386 ft | 508 kts | 83° |
| 2026-05-04 01:40 | 52.94642 | -30.89597 | 37384 ft | 508 kts | 83° |
| 2026-05-04 01:40 | 52.95377 | -30.77984 | 37384 ft | 508 kts | 83° |
| 2026-05-04 01:41 | 52.96100 | -30.66398 | 37385 ft | 507 kts | 83° |
| 2026-05-04 01:41 | 52.96813 | -30.54767 | 37383 ft | 507 kts | 83° |
| 2026-05-04 01:42 | 52.97514 | -30.43151 | 37383 ft | 506 kts | 83° |
| 2026-05-04 01:42 | 52.98200 | -30.31598 | 37381 ft | 506 kts | 83° |
| 2026-05-04 01:43 | 52.98876 | -30.20023 | 37383 ft | 505 kts | 84° |
| 2026-05-04 01:43 | 52.99542 | -30.08423 | 37383 ft | 505 kts | 84° |
| 2026-05-04 01:44 | 53.00427 | -29.96934 | 37380 ft | 503 kts | 76° |
| 2026-05-04 01:44 | 53.02063 | -29.85621 | 37382 ft | 503 kts | 75° |
| 2026-05-04 01:45 | 53.03682 | -29.74359 | 37372 ft | 503 kts | 75° |
| 2026-05-04 01:45 | 53.06084 | -29.57459 | 37366 ft | 503 kts | 75° |
| 2026-05-04 01:46 | 53.07681 | -29.46109 | 37374 ft | 503 kts | 75° |
| 2026-05-04 01:46 | 53.09254 | -29.34844 | 37369 ft | 503 kts | 76° |
| 2026-05-04 01:47 | 53.10827 | -29.23483 | 37364 ft | 503 kts | 76° |
| 2026-05-04 01:47 | 53.12377 | -29.12204 | 37371 ft | 502 kts | 76° |
| 2026-05-04 01:48 | 53.13920 | -29.00884 | 37380 ft | 502 kts | 76° |
| 2026-05-04 01:48 | 53.15451 | -28.89559 | 37381 ft | 502 kts | 76° |
| 2026-05-04 01:49 | 53.16977 | -28.78186 | 37371 ft | 502 kts | 76° |
| 2026-05-04 01:49 | 53.18484 | -28.66868 | 37369 ft | 502 kts | 76° |
| 2026-05-04 01:50 | 53.19984 | -28.55509 | 37368 ft | 501 kts | 76° |
| 2026-05-04 01:50 | 53.21465 | -28.44207 | 37366 ft | 502 kts | 76° |
| 2026-05-04 01:51 | 53.22941 | -28.32851 | 37380 ft | 501 kts | 77° |
| 2026-05-04 01:51 | 53.24400 | -28.21540 | 37377 ft | 501 kts | 77° |
| 2026-05-04 01:52 | 53.25852 | -28.10184 | 37374 ft | 501 kts | 77° |
| 2026-05-04 01:52 | 53.27295 | -27.98812 | 37370 ft | 500 kts | 77° |
| 2026-05-04 01:53 | 53.28721 | -27.87475 | 37363 ft | 500 kts | 77° |
| 2026-05-04 01:53 | 53.30135 | -27.76148 | 37352 ft | 500 kts | 77° |
| 2026-05-04 01:54 | 53.31546 | -27.64744 | 37350 ft | 499 kts | 77° |
| 2026-05-04 01:54 | 53.32943 | -27.53358 | 37351 ft | 499 kts | 77° |
| 2026-05-04 01:55 | 53.34323 | -27.42025 | 37347 ft | 499 kts | 77° |
| 2026-05-04 01:55 | 53.35698 | -27.30630 | 37349 ft | 499 kts | 78° |
| 2026-05-04 01:56 | 53.37050 | -27.19325 | 37347 ft | 499 kts | 78° |
| 2026-05-04 01:56 | 53.38394 | -27.07998 | 37352 ft | 499 kts | 78° |
| 2026-05-04 01:57 | 53.39737 | -26.96575 | 37353 ft | 499 kts | 78° |
| 2026-05-04 01:57 | 53.41061 | -26.85218 | 37345 ft | 499 kts | 78° |
| 2026-05-04 01:58 | 53.42373 | -26.73860 | 37349 ft | 498 kts | 78° |
| 2026-05-04 01:58 | 53.43682 | -26.62429 | 37342 ft | 498 kts | 78° |
| 2026-05-04 01:59 | 53.44969 | -26.51097 | 37335 ft | 498 kts | 78° |
| 2026-05-04 01:59 | 53.46255 | -26.39666 | 37334 ft | 498 kts | 78° |
| 2026-05-04 02:00 | 53.47519 | -26.28322 | 37335 ft | 497 kts | 79° |
| 2026-05-04 02:00 | 53.48781 | -26.16897 | 37337 ft | 497 kts | 79° |
| 2026-05-04 02:01 | 53.50022 | -26.05560 | 37331 ft | 496 kts | 79° |
| 2026-05-04 02:01 | 53.51256 | -25.94183 | 37324 ft | 496 kts | 78° |
| 2026-05-04 02:02 | 53.52484 | -25.82753 | 37314 ft | 496 kts | 78° |
| 2026-05-04 02:02 | 53.53693 | -25.71388 | 37321 ft | 496 kts | 78° |
| 2026-05-04 02:03 | 53.54894 | -25.60000 | 37321 ft | 496 kts | 78° |
| 2026-05-04 02:03 | 53.56082 | -25.48615 | 37319 ft | 496 kts | 78° |
| 2026-05-04 02:04 | 53.57259 | -25.37232 | 37317 ft | 496 kts | 78° |
| 2026-05-04 02:04 | 53.58425 | -25.25838 | 37319 ft | 496 kts | 79° |
| 2026-05-04 02:05 | 53.59582 | -25.14424 | 37321 ft | 496 kts | 79° |
| 2026-05-04 02:05 | 53.60730 | -25.02986 | 37319 ft | 496 kts | 79° |
| 2026-05-04 02:06 | 53.61860 | -24.91615 | 37314 ft | 496 kts | 79° |
| 2026-05-04 02:06 | 53.62985 | -24.80185 | 37309 ft | 496 kts | 79° |
| 2026-05-04 02:07 | 53.64102 | -24.68702 | 37316 ft | 495 kts | 79° |
| 2026-05-04 02:07 | 53.65197 | -24.57341 | 37305 ft | 495 kts | 79° |
| 2026-05-04 02:08 | 53.66290 | -24.45877 | 37307 ft | 495 kts | 79° |
| 2026-05-04 02:08 | 53.67371 | -24.34424 | 37304 ft | 495 kts | 80° |
| 2026-05-04 02:09 | 53.68433 | -24.23040 | 37305 ft | 495 kts | 80° |
| 2026-05-04 02:09 | 53.69492 | -24.11577 | 37294 ft | 495 kts | 80° |
| 2026-05-04 02:10 | 53.70536 | -24.00139 | 37294 ft | 495 kts | 80° |
| 2026-05-04 02:10 | 53.71571 | -23.88693 | 37292 ft | 494 kts | 80° |
| 2026-05-04 02:11 | 53.72588 | -23.77303 | 37288 ft | 494 kts | 80° |
| 2026-05-04 02:11 | 53.73601 | -23.65838 | 37282 ft | 494 kts | 80° |
| 2026-05-04 02:12 | 53.74602 | -23.54384 | 37280 ft | 494 kts | 80° |
| 2026-05-04 02:12 | 53.75590 | -23.42942 | 37284 ft | 493 kts | 80° |
| 2026-05-04 02:13 | 53.76566 | -23.31513 | 37281 ft | 493 kts | 81° |
| 2026-05-04 02:13 | 53.77537 | -23.20006 | 37289 ft | 493 kts | 81° |
| 2026-05-04 02:14 | 53.78484 | -23.08649 | 37285 ft | 493 kts | 81° |
| 2026-05-04 02:14 | 53.79429 | -22.97193 | 37285 ft | 493 kts | 81° |
| 2026-05-04 02:15 | 53.80363 | -22.85714 | 37284 ft | 493 kts | 81° |
| 2026-05-04 02:15 | 53.81285 | -22.74251 | 37274 ft | 492 kts | 81° |
| 2026-05-04 02:16 | 53.82193 | -22.62836 | 37277 ft | 492 kts | 81° |
| 2026-05-04 02:16 | 53.83093 | -22.51367 | 37262 ft | 491 kts | 81° |
| 2026-05-04 02:17 | 53.83978 | -22.39937 | 37261 ft | 491 kts | 81° |
| 2026-05-04 02:17 | 53.84855 | -22.28477 | 37249 ft | 491 kts | 82° |
| 2026-05-04 02:18 | 53.85721 | -22.17009 | 37238 ft | 491 kts | 82° |
| 2026-05-04 02:18 | 53.86569 | -22.05631 | 37252 ft | 490 kts | 82° |
| 2026-05-04 02:19 | 53.87415 | -21.94137 | 37246 ft | 490 kts | 82° |
| 2026-05-04 02:19 | 53.88246 | -21.82687 | 37250 ft | 490 kts | 82° |
| 2026-05-04 02:20 | 53.89061 | -21.71292 | 37250 ft | 490 kts | 82° |
| 2026-05-04 02:20 | 53.89870 | -21.59846 | 37249 ft | 490 kts | 82° |
| 2026-05-04 02:21 | 53.90665 | -21.48431 | 37251 ft | 489 kts | 82° |
| 2026-05-04 02:21 | 53.91452 | -21.36976 | 37248 ft | 489 kts | 82° |
| 2026-05-04 02:22 | 53.92224 | -21.25564 | 37244 ft | 488 kts | 83° |
| 2026-05-04 02:22 | 53.92986 | -21.14157 | 37239 ft | 488 kts | 83° |
| 2026-05-04 02:23 | 53.93742 | -21.02658 | 37237 ft | 488 kts | 83° |
| 2026-05-04 02:23 | 53.94480 | -20.91263 | 37242 ft | 488 kts | 83° |
| 2026-05-04 02:24 | 53.95209 | -20.79837 | 37240 ft | 488 kts | 83° |
| 2026-05-04 02:24 | 53.95929 | -20.68378 | 37240 ft | 487 kts | 83° |
| 2026-05-04 02:25 | 53.96634 | -20.56988 | 37236 ft | 487 kts | 83° |
| 2026-05-04 02:25 | 53.97332 | -20.45534 | 37235 ft | 486 kts | 83° |
| 2026-05-04 02:26 | 53.98013 | -20.34179 | 37236 ft | 486 kts | 84° |
| 2026-05-04 02:26 | 53.98685 | -20.22771 | 37236 ft | 486 kts | 84° |
| 2026-05-04 02:27 | 53.99348 | -20.11348 | 37236 ft | 485 kts | 84° |
| 2026-05-04 02:27 | 53.99460 | -19.99925 | 37236 ft | 486 kts | 95° |
| 2026-05-04 02:28 | 53.98039 | -19.88765 | 37233 ft | 486 kts | 106° |
| 2026-05-04 02:28 | 53.96095 | -19.77776 | 37232 ft | 486 kts | 106° |
| 2026-05-04 02:29 | 53.94147 | -19.66809 | 37231 ft | 485 kts | 106° |
| 2026-05-04 02:29 | 53.92196 | -19.55885 | 37224 ft | 484 kts | 106° |
| 2026-05-04 02:30 | 53.90237 | -19.44980 | 37219 ft | 483 kts | 105° |
| 2026-05-04 02:30 | 53.88264 | -19.34063 | 37224 ft | 483 kts | 106° |
| 2026-05-04 02:31 | 53.86293 | -19.23223 | 37213 ft | 483 kts | 106° |
| 2026-05-04 02:31 | 53.84302 | -19.12340 | 37204 ft | 484 kts | 106° |
| 2026-05-04 02:32 | 53.82309 | -19.01502 | 37204 ft | 483 kts | 106° |
| 2026-05-04 02:32 | 53.80293 | -18.90612 | 37200 ft | 483 kts | 106° |
| 2026-05-04 02:33 | 53.78290 | -18.79849 | 37202 ft | 483 kts | 106° |
| 2026-05-04 02:33 | 53.76265 | -18.69027 | 37204 ft | 483 kts | 106° |
| 2026-05-04 02:34 | 53.74241 | -18.58282 | 37198 ft | 483 kts | 106° |
| 2026-05-04 02:34 | 53.72195 | -18.47474 | 37197 ft | 483 kts | 106° |
| 2026-05-04 02:35 | 53.70155 | -18.36760 | 37198 ft | 482 kts | 106° |
| 2026-05-04 02:35 | 53.68095 | -18.26008 | 37199 ft | 482 kts | 107° |
| 2026-05-04 02:36 | 53.66032 | -18.15292 | 37198 ft | 482 kts | 106° |
| 2026-05-04 02:36 | 53.63957 | -18.04582 | 37198 ft | 482 kts | 106° |
| 2026-05-04 02:37 | 53.61871 | -17.93868 | 37195 ft | 482 kts | 106° |
| 2026-05-04 02:37 | 53.59784 | -17.83216 | 37194 ft | 482 kts | 106° |
| 2026-05-04 02:38 | 53.57676 | -17.72509 | 37189 ft | 482 kts | 106° |
| 2026-05-04 02:38 | 53.55561 | -17.61831 | 37190 ft | 481 kts | 106° |
| 2026-05-04 02:39 | 53.53448 | -17.51220 | 37195 ft | 481 kts | 106° |
| 2026-05-04 02:39 | 53.51319 | -17.40582 | 37193 ft | 481 kts | 105° |
| 2026-05-04 02:40 | 53.49192 | -17.30019 | 37194 ft | 481 kts | 106° |
| 2026-05-04 02:40 | 53.47042 | -17.19391 | 37187 ft | 481 kts | 106° |
| 2026-05-04 02:41 | 53.44887 | -17.08802 | 37180 ft | 481 kts | 106° |
| 2026-05-04 02:41 | 53.42717 | -16.98192 | 37182 ft | 480 kts | 106° |
| 2026-05-04 02:42 | 53.40549 | -16.87653 | 37187 ft | 479 kts | 106° |
| 2026-05-04 02:42 | 53.38386 | -16.77190 | 37184 ft | 479 kts | 106° |
| 2026-05-04 02:43 | 53.36191 | -16.66631 | 37190 ft | 479 kts | 106° |
| 2026-05-04 02:43 | 53.34004 | -16.56164 | 37184 ft | 479 kts | 106° |
| 2026-05-04 02:44 | 53.31795 | -16.45647 | 37189 ft | 478 kts | 106° |
| 2026-05-04 02:44 | 53.29590 | -16.35201 | 37190 ft | 478 kts | 105° |
| 2026-05-04 02:45 | 53.27386 | -16.24818 | 37192 ft | 478 kts | 106° |
| 2026-05-04 02:45 | 53.25164 | -16.14401 | 37189 ft | 477 kts | 106° |
| 2026-05-04 02:46 | 53.22977 | -16.04199 | 37196 ft | 477 kts | 106° |
| 2026-05-04 02:46 | 53.20735 | -15.93796 | 37192 ft | 477 kts | 106° |
| 2026-05-04 02:47 | 53.18495 | -15.83453 | 37192 ft | 477 kts | 106° |
| 2026-05-04 02:47 | 53.16239 | -15.73092 | 37183 ft | 477 kts | 106° |
| 2026-05-04 02:48 | 53.13971 | -15.62727 | 37190 ft | 476 kts | 106° |
| 2026-05-04 02:48 | 53.11704 | -15.52412 | 37190 ft | 475 kts | 106° |
| 2026-05-04 02:49 | 53.09434 | -15.42145 | 37184 ft | 475 kts | 106° |
| 2026-05-04 02:49 | 53.07144 | -15.31830 | 37181 ft | 475 kts | 107° |
| 2026-05-04 02:50 | 53.04852 | -15.21562 | 37179 ft | 476 kts | 107° |
| 2026-05-04 02:50 | 53.02555 | -15.11321 | 37174 ft | 475 kts | 107° |
| 2026-05-04 02:51 | 53.00566 | -15.00949 | 37165 ft | 470 kts | 97° |
| 2026-05-04 02:51 | 53.00035 | -14.90273 | 37165 ft | 464 kts | 86° |
| 2026-05-04 02:52 | 53.00069 | -14.79588 | 37167 ft | 464 kts | 86° |
| 2026-05-04 02:52 | 53.00090 | -14.68896 | 37164 ft | 463 kts | 86° |
| 2026-05-04 02:53 | 53.00100 | -14.58251 | 37154 ft | 463 kts | 86° |
| 2026-05-04 02:53 | 53.00102 | -14.47569 | 37164 ft | 463 kts | 86° |
| 2026-05-04 02:54 | 53.00095 | -14.36950 | 37161 ft | 463 kts | 86° |
| 2026-05-04 02:54 | 53.00077 | -14.26302 | 37150 ft | 463 kts | 86° |
| 2026-05-04 02:55 | 53.00034 | -14.10377 | 37160 ft | 462 kts | 87° |
| 2026-05-04 02:56 | 52.99885 | -13.99758 | 37158 ft | 464 kts | 92° |
| 2026-05-04 02:56 | 52.98709 | -13.89197 | 37163 ft | 467 kts | 97° |
| 2026-05-04 02:57 | 52.97424 | -13.78626 | 37139 ft | 467 kts | 97° |
| 2026-05-04 02:57 | 52.96140 | -13.68132 | 37150 ft | 468 kts | 97° |
| 2026-05-04 02:58 | 52.94836 | -13.57564 | 37140 ft | 468 kts | 97° |
| 2026-05-04 02:58 | 52.93531 | -13.47058 | 37143 ft | 468 kts | 97° |
| 2026-05-04 02:59 | 52.92214 | -13.36533 | 37107 ft | 467 kts | 97° |
| 2026-05-04 02:59 | 52.90886 | -13.25998 | 37116 ft | 468 kts | 98° |
| 2026-05-04 03:00 | 52.89550 | -13.15479 | 37112 ft | 467 kts | 98° |
| 2026-05-04 03:00 | 52.88213 | -13.05034 | 37116 ft | 468 kts | 98° |
| 2026-05-04 03:01 | 52.86859 | -12.94532 | 37108 ft | 468 kts | 98° |
| 2026-05-04 03:01 | 52.85494 | -12.84020 | 37104 ft | 469 kts | 98° |
| 2026-05-04 03:02 | 52.84116 | -12.73495 | 37113 ft | 468 kts | 98° |
| 2026-05-04 03:02 | 52.82741 | -12.63056 | 37118 ft | 467 kts | 98° |
| 2026-05-04 03:03 | 52.81353 | -12.52604 | 37115 ft | 467 kts | 98° |
| 2026-05-04 03:03 | 52.79959 | -12.42183 | 37118 ft | 468 kts | 98° |
| 2026-05-04 03:04 | 52.78554 | -12.31728 | 37125 ft | 468 kts | 99° |
| 2026-05-04 03:04 | 52.77140 | -12.21286 | 37113 ft | 468 kts | 99° |
| 2026-05-04 03:05 | 52.75716 | -12.10865 | 37102 ft | 468 kts | 99° |
| 2026-05-04 03:05 | 52.74268 | -12.00345 | 37098 ft | 468 kts | 98° |
| 2026-05-04 03:06 | 52.72827 | -11.89951 | 37090 ft | 469 kts | 98° |
| 2026-05-04 03:06 | 52.71372 | -11.79526 | 37095 ft | 468 kts | 98° |
| 2026-05-04 03:07 | 52.69905 | -11.69087 | 37072 ft | 468 kts | 98° |
| 2026-05-04 03:07 | 52.68432 | -11.58675 | 37090 ft | 468 kts | 98° |
| 2026-05-04 03:08 | 52.66946 | -11.48245 | 37078 ft | 467 kts | 98° |
| 2026-05-04 03:08 | 52.65456 | -11.37857 | 37075 ft | 468 kts | 98° |
| 2026-05-04 03:09 | 52.63953 | -11.27441 | 37070 ft | 469 kts | 99° |
| 2026-05-04 03:09 | 52.62437 | -11.17017 | 37061 ft | 469 kts | 99° |
| 2026-05-04 03:10 | 52.60923 | -11.06674 | 37057 ft | 468 kts | 99° |
| 2026-05-04 03:10 | 52.59388 | -10.96248 | 37059 ft | 468 kts | 99° |
| 2026-05-04 03:11 | 52.57857 | -10.85928 | 37050 ft | 468 kts | 99° |
| 2026-05-04 03:11 | 52.56311 | -10.75572 | 37037 ft | 468 kts | 99° |
| 2026-05-04 03:12 | 52.54751 | -10.65190 | 37042 ft | 461 kts | 99° |
| 2026-05-04 03:12 | 52.53241 | -10.55231 | 37045 ft | 445 kts | 99° |
| 2026-05-04 03:13 | 52.51758 | -10.45480 | 37028 ft | 440 kts | 99° |
| 2026-05-04 03:13 | 52.50272 | -10.35766 | 37021 ft | 439 kts | 99° |
| 2026-05-04 03:14 | 52.48779 | -10.26063 | 37023 ft | 440 kts | 100° |
| 2026-05-04 03:14 | 52.47284 | -10.16398 | 36764 ft | 443 kts | 100° |
| 2026-05-04 03:14 | 52.46521 | -10.11501 | 36241 ft | 438 kts | 99° |
| 2026-05-04 03:15 | 52.45774 | -10.06724 | 35772 ft | 437 kts | 99° |
| 2026-05-04 03:15 | 52.45027 | -10.01945 | 35109 ft | 441 kts | 98° |
| 2026-05-04 03:15 | 52.44265 | -9.97087 | 34405 ft | 435 kts | 97° |
| 2026-05-04 03:15 | 52.43519 | -9.92377 | 33956 ft | 423 kts | 97° |
| 2026-05-04 03:16 | 52.42794 | -9.87803 | 33398 ft | 415 kts | 97° |
| 2026-05-04 03:16 | 52.42074 | -9.83259 | 32861 ft | 412 kts | 97° |
| 2026-05-04 03:16 | 52.41356 | -9.78726 | 32318 ft | 413 kts | 97° |
| 2026-05-04 03:16 | 52.40635 | -9.74192 | 31779 ft | 411 kts | 97° |
| 2026-05-04 03:17 | 52.39920 | -9.69713 | 31232 ft | 408 kts | 97° |
| 2026-05-04 03:17 | 52.39206 | -9.65251 | 30694 ft | 403 kts | 97° |
| 2026-05-04 03:17 | 52.38506 | -9.60898 | 30173 ft | 398 kts | 97° |
| 2026-05-04 03:17 | 52.37803 | -9.56529 | 29641 ft | 395 kts | 97° |
| 2026-05-04 03:18 | 52.37105 | -9.52209 | 29123 ft | 392 kts | 98° |
| 2026-05-04 03:18 | 52.36411 | -9.47937 | 28587 ft | 390 kts | 98° |
| 2026-05-04 03:18 | 52.35718 | -9.43681 | 28058 ft | 388 kts | 98° |
| 2026-05-04 03:18 | 52.35024 | -9.39435 | 27541 ft | 386 kts | 98° |
| 2026-05-04 03:19 | 52.34335 | -9.35229 | 27023 ft | 384 kts | 98° |
| 2026-05-04 03:19 | 52.33644 | -9.31018 | 26518 ft | 383 kts | 99° |
| 2026-05-04 03:19 | 52.32958 | -9.26845 | 26015 ft | 381 kts | 99° |
| 2026-05-04 03:19 | 52.32266 | -9.22651 | 25498 ft | 379 kts | 99° |
| 2026-05-04 03:20 | 52.31582 | -9.18518 | 25009 ft | 378 kts | 99° |
| 2026-05-04 03:20 | 52.30897 | -9.14385 | 24513 ft | 376 kts | 99° |
| 2026-05-04 03:20 | 52.30224 | -9.10332 | 24014 ft | 374 kts | 100° |
| 2026-05-04 03:20 | 52.29536 | -9.06200 | 23520 ft | 372 kts | 100° |
| 2026-05-04 03:21 | 52.28858 | -9.02143 | 23023 ft | 370 kts | 100° |
| 2026-05-04 03:21 | 52.28184 | -8.98117 | 22540 ft | 368 kts | 100° |
| 2026-05-04 03:21 | 52.27515 | -8.94128 | 22058 ft | 366 kts | 100° |
| 2026-05-04 03:21 | 52.26844 | -8.90136 | 21575 ft | 364 kts | 101° |
| 2026-05-04 03:22 | 52.26176 | -8.86175 | 21097 ft | 362 kts | 101° |
| 2026-05-04 03:22 | 52.25496 | -8.82233 | 20619 ft | 361 kts | 103° |
| 2026-05-04 03:22 | 52.24457 | -8.78485 | 20013 ft | 367 kts | 117° |
| 2026-05-04 03:22 | 52.22862 | -8.75245 | 19387 ft | 369 kts | 132° |
| 2026-05-04 03:23 | 52.20802 | -8.72775 | 18787 ft | 371 kts | 147° |
| 2026-05-04 03:23 | 52.18398 | -8.71212 | 17992 ft | 378 kts | 162° |
| 2026-05-04 03:23 | 52.15778 | -8.70756 | 17122 ft | 385 kts | 180° |
| 2026-05-04 03:23 | 52.13186 | -8.71519 | 16745 ft | 375 kts | 194° |
| 2026-05-04 03:24 | 52.10741 | -8.72776 | 16245 ft | 369 kts | 196° |
| 2026-05-04 03:24 | 52.08315 | -8.74046 | 15764 ft | 368 kts | 196° |
| 2026-05-04 03:24 | 52.05870 | -8.75318 | 15280 ft | 366 kts | 196° |
| 2026-05-04 03:24 | 52.03465 | -8.76568 | 14799 ft | 363 kts | 196° |
| 2026-05-04 03:25 | 52.01073 | -8.77744 | 14320 ft | 359 kts | 191° |
| 2026-05-04 03:25 | 51.98587 | -8.77996 | 13846 ft | 351 kts | 172° |
| 2026-05-04 03:25 | 51.96219 | -8.77256 | 13349 ft | 346 kts | 165° |
| 2026-05-04 03:25 | 51.93883 | -8.76414 | 12893 ft | 344 kts | 165° |
| 2026-05-04 03:26 | 51.91552 | -8.75584 | 12456 ft | 339 kts | 165° |
| 2026-05-04 03:26 | 51.89256 | -8.74768 | 12000 ft | 333 kts | 165° |
| 2026-05-04 03:26 | 51.87031 | -8.73977 | 11563 ft | 326 kts | 165° |
| 2026-05-04 03:26 | 51.84822 | -8.73193 | 11146 ft | 318 kts | 165° |
| 2026-05-04 03:27 | 51.82692 | -8.72437 | 10726 ft | 313 kts | 165° |
| 2026-05-04 03:27 | 51.80597 | -8.71693 | 10310 ft | 308 kts | 165° |
| 2026-05-04 03:27 | 51.78541 | -8.70877 | 9909 ft | 300 kts | 157° |
| 2026-05-04 03:27 | 51.76708 | -8.69420 | 9493 ft | 291 kts | 148° |
| 2026-05-04 03:28 | 51.74964 | -8.67872 | 9134 ft | 284 kts | 148° |
| 2026-05-04 03:28 | 51.73206 | -8.66324 | 8758 ft | 286 kts | 148° |
| 2026-05-04 03:28 | 51.71458 | -8.64785 | 8368 ft | 286 kts | 148° |
| 2026-05-04 03:28 | 51.69732 | -8.63269 | 7998 ft | 284 kts | 148° |
| 2026-05-04 03:29 | 51.67991 | -8.61742 | 7620 ft | 282 kts | 148° |
| 2026-05-04 03:29 | 51.66285 | -8.60247 | 7248 ft | 278 kts | 148° |
| 2026-05-04 03:29 | 51.64609 | -8.58780 | 6885 ft | 273 kts | 148° |
| 2026-05-04 03:29 | 51.63021 | -8.57188 | 6520 ft | 265 kts | 134° |
| 2026-05-04 03:30 | 51.62062 | -8.54824 | 6119 ft | 251 kts | 102° |
| 2026-05-04 03:30 | 51.62069 | -8.52135 | 5689 ft | 238 kts | 68° |
| 2026-05-04 03:30 | 51.62870 | -8.49870 | 5240 ft | 230 kts | 53° |
| 2026-05-04 03:30 | 51.63798 | -8.47832 | 4829 ft | 226 kts | 51° |
| 2026-05-04 03:31 | 51.64724 | -8.45818 | 4420 ft | 222 kts | 52° |
| 2026-05-04 03:31 | 51.65647 | -8.43829 | 3905 ft | 224 kts | 52° |
| 2026-05-04 03:31 | 51.66395 | -8.41633 | 3416 ft | 224 kts | 61° |
| 2026-05-04 03:31 | 51.67294 | -8.39692 | 3039 ft | 214 kts | 36° |
| 2026-05-04 03:32 | 51.68641 | -8.39098 | 2974 ft | 201 kts | 352° |
| 2026-05-04 03:32 | 51.69951 | -8.40053 | 2978 ft | 210 kts | 330° |
| 2026-05-04 03:32 | 51.71218 | -8.41320 | 2974 ft | 213 kts | 335° |
| 2026-05-04 03:32 | 51.72564 | -8.42320 | 2709 ft | 213 kts | 341° |
| 2026-05-04 03:33 | 51.73952 | -8.43137 | 2466 ft | 205 kts | 343° |
| 2026-05-04 03:33 | 51.75248 | -8.43875 | 2193 ft | 192 kts | 343° |
| 2026-05-04 03:33 | 51.76460 | -8.44581 | 1938 ft | 179 kts | 343° |
| 2026-05-04 03:33 | 51.77568 | -8.45239 | 1685 ft | 157 kts | 342° |
| 2026-05-04 03:34 | 51.78519 | -8.45809 | 1532 ft | 134 kts | 343° |
| 2026-05-04 03:34 | 51.79350 | -8.46311 | 1375 ft | 121 kts | 344° |
| 2026-05-04 03:34 | 51.80145 | -8.46777 | 1186 ft | 123 kts | 343° |
| 2026-05-04 03:34 | 51.80956 | -8.47242 | 1006 ft | 122 kts | 343° |
| 2026-05-04 03:35 | 51.81762 | -8.47707 | 844 ft | 122 kts | 342° |
| 2026-05-04 03:35 | 51.82553 | -8.48192 | 668 ft | 123 kts | 341° |
| 2026-05-04 03:35 | 51.83356 | -8.48660 | 491 ft | 122 kts | 341° |
| 2026-05-04 03:35 | 51.84069 | -8.49077 | 478 ft | 83 kts | 340° |
| 2026-05-04 03:36 | 51.84526 | -8.49350 | 492 ft | 64 kts | 340° |
| 2026-05-04 03:36 | 51.84853 | -8.49540 | 493 ft | 38 kts | 339° |
| 2026-05-04 03:36 | 51.84996 | -8.49592 | 491 ft | 14 kts | 23° |
| 2026-05-04 03:36 | 51.85090 | -8.49525 | 494 ft | 15 kts | 27° |
| 2026-05-04 03:37 | 51.85142 | -8.49460 | 497 ft | 8 kts | 55° |
| 2026-05-04 03:37 | 51.85179 | -8.49406 | 501 ft | 6 kts | 8° |
| 2026-05-04 03:37 | 51.85218 | -8.49377 | 504 ft | 5 kts | 54° |
| 2026-05-04 03:37 | 51.85229 | -8.49335 | 507 ft | 1 kts | 73° |
| 2026-05-04 03:38 | 51.85233 | -8.49318 | 508 ft | 2 kts | 65° |
| 2026-05-04 03:38 | 51.85238 | -8.49299 | 510 ft | 1 kts | 69° |
| 2026-05-04 03:38 | 51.85240 | -8.49290 | 511 ft | 0 kts | 69° |